createdAt,value
2022-11-16T00:03:23.680Z,136.67
2022-11-16T00:13:27.193Z,135.03
2022-11-16T00:23:32.337Z,153.40
2022-11-16T00:33:36.157Z,157.17
2022-11-16T00:43:41.068Z,160.40
2022-11-16T00:53:44.563Z,155.20
2022-11-16T01:03:49.456Z,162.40
2022-11-16T01:13:53.437Z,157.37
2022-11-16T01:23:58.245Z,178.43
2022-11-16T01:34:01.847Z,188.07
2022-11-16T01:44:47.053Z,181.93
2022-11-16T01:54:56.196Z,186.30
2022-11-16T02:05:05.842Z,182.37
2022-11-16T02:15:30.678Z,180.80
2022-11-16T02:25:58.085Z,182.00
2022-11-16T02:36:06.800Z,187.10
2022-11-16T02:46:18.034Z,183.20
2022-11-16T02:56:22.886Z,185.83
2022-11-16T03:06:31.196Z,187.87
2022-11-16T03:16:39.431Z,178.53
2022-11-16T03:26:50.634Z,173.80
2022-11-16T03:36:57.514Z,175.23
2022-11-16T03:47:00.869Z,178.93
2022-11-16T03:57:05.669Z,190.00
2022-11-16T04:07:28.049Z,183.63
2022-11-16T04:17:50.508Z,174.20
2022-11-16T04:28:13.177Z,180.77
2022-11-16T04:38:20.517Z,177.63
2022-11-16T04:48:23.648Z,177.43
2022-11-16T04:58:31.291Z,172.90
2022-11-16T05:08:35.096Z,173.93
2022-11-16T05:18:41.660Z,171.80
2022-11-16T05:28:45.391Z,170.10
2022-11-16T05:38:55.167Z,160.07
2022-11-16T05:49:01.509Z,163.47
2022-11-16T05:59:06.166Z,161.37
2022-11-16T06:09:09.869Z,155.13
2022-11-16T06:19:15.389Z,167.63
2022-11-16T06:29:18.637Z,157.47
2022-11-16T06:39:23.395Z,159.43
2022-11-16T06:49:28.569Z,159.00
2022-11-16T06:59:37.282Z,163.27
2022-11-16T07:09:40.644Z,146.57
2022-11-16T07:19:45.937Z,138.30
2022-11-16T07:29:49.102Z,141.93
2022-11-16T07:40:18.372Z,141.13
2022-11-16T07:50:23.198Z,142.73
2022-11-16T08:00:28.979Z,134.37
2022-11-16T08:10:42.848Z,149.37
2022-11-16T08:20:48.365Z,147.53
2022-11-16T08:30:54.000Z,134.47
2022-11-16T08:41:00.424Z,127.80
2022-11-16T08:51:21.475Z,119.63
2022-11-16T09:01:33.667Z,114.50
2022-11-16T09:11:37.273Z,109.13
2022-11-16T09:21:42.123Z,101.20
2022-11-16T09:31:45.756Z,102.80
2022-11-16T09:42:11.342Z,97.63
2022-11-16T09:52:23.439Z,97.23
2022-11-16T10:02:33.845Z,93.27
2022-11-16T10:12:43.821Z,94.90
2022-11-16T10:22:56.981Z,96.30
2022-11-16T10:33:10.930Z,92.57
2022-11-16T10:43:18.316Z,95.60
2022-11-16T10:53:29.810Z,91.20
2022-11-16T11:03:34.902Z,91.13
2022-11-16T11:13:38.699Z,88.83
2022-11-16T11:23:51.933Z,92.37
2022-11-16T11:33:59.524Z,102.50
2022-11-16T11:44:06.982Z,96.53
2022-11-16T11:54:19.676Z,93.40
2022-11-16T12:05:35.050Z,95.07
2022-11-16T12:15:53.246Z,98.17
2022-11-16T12:26:07.973Z,91.00
2022-11-16T12:36:28.716Z,90.27
2022-11-16T12:46:46.314Z,91.43
2022-11-16T12:57:02.453Z,97.13
2022-11-16T13:07:13.788Z,92.20
2022-11-16T13:17:22.925Z,88.93
2022-11-16T13:27:38.104Z,89.70
2022-11-16T13:37:49.646Z,87.37
2022-11-16T13:47:57.273Z,88.80
2022-11-16T13:58:04.247Z,89.70
2022-11-16T14:08:52.454Z,86.73
2022-11-16T14:18:58.225Z,90.97
2022-11-16T14:29:29.450Z,89.67
2022-11-16T14:39:38.523Z,87.47
2022-11-16T14:49:46.619Z,81.93
2022-11-16T14:59:50.852Z,83.83
2022-11-16T15:09:59.248Z,87.73
2022-11-16T15:20:13.347Z,89.10
2022-11-16T15:30:22.643Z,87.10
2022-11-16T15:40:26.574Z,85.30
2022-11-16T15:50:31.984Z,85.63
2022-11-16T16:00:38.032Z,84.87
2022-11-16T16:10:42.955Z,86.97
2022-11-16T16:20:49.849Z,85.53
2022-11-16T16:30:55.251Z,83.97
2022-11-16T16:41:02.982Z,89.13
2022-11-16T16:51:08.030Z,100.70
2022-11-16T17:01:12.356Z,84.80
2022-11-16T17:11:18.106Z,84.13
2022-11-16T17:21:23.385Z,83.80
2022-11-16T17:31:29.174Z,82.83
2022-11-16T17:41:32.714Z,86.27
2022-11-16T17:51:37.630Z,83.33
2022-11-16T18:01:41.777Z,83.70
2022-11-16T18:11:46.962Z,81.50
2022-11-16T18:21:50.437Z,83.87
2022-11-16T18:31:56.085Z,88.07
2022-11-16T18:41:59.538Z,87.53
2022-11-16T18:52:05.022Z,83.17
2022-11-16T19:02:12.779Z,84.63
2022-11-16T19:12:18.290Z,86.07
2022-11-16T19:22:29.580Z,86.40
2022-11-16T19:32:34.840Z,90.57
2022-11-16T19:42:39.667Z,106.77
2022-11-16T19:52:46.826Z,112.13
2022-11-16T20:02:50.339Z,90.23
2022-11-16T20:12:57.638Z,93.93
2022-11-16T20:23:02.202Z,92.07
2022-11-16T20:33:07.249Z,95.20
2022-11-16T20:43:14.419Z,91.47
2022-11-16T20:53:22.274Z,86.77
2022-11-16T21:03:26.193Z,96.53
2022-11-16T21:13:48.701Z,85.43
2022-11-16T21:23:53.386Z,87.10
2022-11-16T21:34:00.639Z,87.33
2022-11-16T21:44:04.129Z,87.17
2022-11-16T21:54:11.361Z,83.70
2022-11-16T22:04:32.508Z,87.90
2022-11-16T22:14:37.291Z,84.10
2022-11-16T22:24:41.053Z,89.20
2022-11-16T22:34:46.149Z,84.00
2022-11-16T22:44:49.591Z,89.70
2022-11-16T22:54:54.445Z,83.87
2022-11-16T23:04:57.929Z,84.17
2022-11-16T23:15:20.299Z,92.10
2022-11-16T23:25:41.110Z,88.97
2022-11-16T23:35:45.893Z,84.00
2022-11-16T23:45:49.508Z,86.83
2022-11-16T23:55:54.279Z,84.67
